createdAt,value
2023-01-15T00:00:51.000Z,989.9
2023-01-15T00:02:04.000Z,989.9
2023-01-15T00:03:16.000Z,990
2023-01-15T00:04:28.000Z,989.9
2023-01-15T00:05:40.000Z,989.9
2023-01-15T00:06:52.000Z,989.9
2023-01-15T00:08:05.000Z,989.9
2023-01-15T00:09:17.000Z,989.8
2023-01-15T00:10:29.000Z,989.8
2023-01-15T00:11:41.000Z,989.7
2023-01-15T00:12:53.000Z,989.7
2023-01-15T00:14:05.000Z,989.6
2023-01-15T00:15:17.000Z,989.6
2023-01-15T00:16:29.000Z,989.5
2023-01-15T00:17:41.000Z,989.5
2023-01-15T00:18:53.000Z,989.5
2023-01-15T00:20:05.000Z,989.5
2023-01-15T00:21:18.000Z,989.5
2023-01-15T00:22:30.000Z,989.6
2023-01-15T00:23:42.000Z,989.6
2023-01-15T00:24:54.000Z,989.6
2023-01-15T00:26:06.000Z,989.5
2023-01-15T00:27:18.000Z,989.5
2023-01-15T00:28:31.000Z,989.5
2023-01-15T00:29:43.000Z,989.5
2023-01-15T00:30:54.000Z,989.4
2023-01-15T00:32:06.000Z,989.3
2023-01-15T00:33:18.000Z,989.2
2023-01-15T00:34:30.000Z,989.1
2023-01-15T00:35:42.000Z,989.1
2023-01-15T00:36:54.000Z,989.1
2023-01-15T00:38:06.000Z,989.1
2023-01-15T00:39:18.000Z,988.9
2023-01-15T00:40:31.000Z,988.9
2023-01-15T00:41:43.000Z,988.9
2023-01-15T00:42:55.000Z,989
2023-01-15T00:44:07.000Z,989
2023-01-15T00:45:19.000Z,988.9
2023-01-15T00:46:31.000Z,988.9
2023-01-15T00:47:44.000Z,989
2023-01-15T00:48:56.000Z,989
2023-01-15T00:50:07.000Z,989
2023-01-15T00:51:19.000Z,989
2023-01-15T00:53:44.000Z,989.1
2023-01-15T00:54:56.000Z,989
2023-01-15T00:56:08.000Z,989.1
2023-01-15T00:58:32.000Z,989
2023-01-15T00:59:44.000Z,989
2023-01-15T01:00:02.161Z,989.1
2023-01-15T01:00:57.000Z,989
2023-01-15T01:02:09.000Z,989
2023-01-15T01:03:21.000Z,989
2023-01-15T01:04:33.000Z,988.9
2023-01-15T01:05:45.000Z,989
2023-01-15T01:06:57.000Z,989
2023-01-15T01:08:09.000Z,989
2023-01-15T01:09:21.000Z,988.9
2023-01-15T01:10:33.000Z,989
2023-01-15T01:11:45.000Z,989
2023-01-15T01:12:58.000Z,989.1
2023-01-15T01:15:22.000Z,989
2023-01-15T01:16:34.000Z,989
2023-01-15T01:17:46.000Z,989
2023-01-15T01:18:58.000Z,989
2023-01-15T01:20:11.000Z,989
2023-01-15T01:21:23.000Z,988.9
2023-01-15T01:21:40.522Z,989
2023-01-15T01:22:34.000Z,988.8
2023-01-15T01:23:46.000Z,988.9
2023-01-15T01:24:58.000Z,988.9
2023-01-15T01:26:11.000Z,988.9
2023-01-15T01:27:23.000Z,988.8
2023-01-15T01:28:35.000Z,988.9
2023-01-15T01:29:47.000Z,988.9
2023-01-15T01:30:59.000Z,988.8
2023-01-15T01:32:11.000Z,988.9
2023-01-15T01:33:24.000Z,988.9
2023-01-15T01:34:36.000Z,988.8
2023-01-15T01:35:48.000Z,988.8
2023-01-15T01:37:00.000Z,988.8
2023-01-15T01:38:11.000Z,988.7
2023-01-15T01:39:24.000Z,988.7
2023-01-15T01:40:36.000Z,988.7
2023-01-15T01:41:48.000Z,988.7
2023-01-15T01:43:00.000Z,988.7
2023-01-15T01:44:12.000Z,988.6
2023-01-15T01:45:25.000Z,988.6
2023-01-15T01:46:37.000Z,988.6
2023-01-15T01:47:49.000Z,988.7
2023-01-15T01:49:01.000Z,988.6
2023-01-15T01:50:13.000Z,988.6
2023-01-15T01:51:25.000Z,988.6
2023-01-15T01:52:38.000Z,988.6
2023-01-15T01:53:50.000Z,988.6
2023-01-15T01:55:01.000Z,988.5
2023-01-15T01:56:13.000Z,988.6
2023-01-15T01:57:25.000Z,988.6
2023-01-15T01:58:38.000Z,988.5
2023-01-15T01:59:50.000Z,988.5
2023-01-15T02:01:02.000Z,988.5
2023-01-15T02:03:26.000Z,988.5
2023-01-15T02:04:38.000Z,988.5
2023-01-15T02:05:51.000Z,988.5
2023-01-15T02:07:03.000Z,988.5
2023-01-15T02:08:15.000Z,988.5
2023-01-15T02:09:27.000Z,988.6
2023-01-15T02:09:44.955Z,988.5
2023-01-15T02:11:51.000Z,988.6
2023-01-15T02:13:03.000Z,988.6
2023-01-15T02:14:15.000Z,988.5
2023-01-15T02:15:27.000Z,988.4
2023-01-15T02:16:39.000Z,988.5
2023-01-15T02:17:52.000Z,988.5
2023-01-15T02:18:09.250Z,988.6
2023-01-15T02:19:04.000Z,988.5
2023-01-15T02:20:16.000Z,988.5
2023-01-15T02:21:28.000Z,988.5
2023-01-15T02:22:40.000Z,988.4
2023-01-15T02:23:52.000Z,988.4
2023-01-15T02:25:05.000Z,988.4
2023-01-15T02:26:16.000Z,988.4
2023-01-15T02:27:28.000Z,988.5
2023-01-15T02:28:40.000Z,988.5
2023-01-15T02:29:52.000Z,988.5
2023-01-15T02:31:05.000Z,988.4
2023-01-15T02:32:17.000Z,988.3
2023-01-15T02:33:29.000Z,988.4
2023-01-15T02:34:41.000Z,988.4
2023-01-15T02:35:53.000Z,988.4
2023-01-15T02:37:05.000Z,988.4
2023-01-15T02:38:18.000Z,988.4
2023-01-15T02:39:30.000Z,988.5
2023-01-15T02:40:42.000Z,988.4
2023-01-15T02:41:53.000Z,988.4
2023-01-15T02:44:18.000Z,988.4
2023-01-15T02:45:30.000Z,988.4
2023-01-15T02:46:42.000Z,988.4
2023-01-15T02:47:54.000Z,988.4
2023-01-15T02:49:06.000Z,988.4
2023-01-15T02:50:19.000Z,988.3
2023-01-15T02:50:36.275Z,988.4
2023-01-15T02:51:31.000Z,988.4
2023-01-15T02:52:43.000Z,988.3
2023-01-15T02:53:55.000Z,988.4
2023-01-15T02:55:07.000Z,988.3
2023-01-15T02:56:19.000Z,988.3
2023-01-15T02:57:31.000Z,988.3
2023-01-15T02:58:43.000Z,988.3
2023-01-15T02:59:55.000Z,988.2
2023-01-15T03:01:07.000Z,988.3
2023-01-15T03:02:19.000Z,988.3
2023-01-15T03:03:32.000Z,988.3
2023-01-15T03:04:44.000Z,988.2
2023-01-15T03:05:56.000Z,988.3
2023-01-15T03:07:08.000Z,988.3
2023-01-15T03:08:20.000Z,988.4
2023-01-15T03:09:32.000Z,988.4
2023-01-15T03:10:45.000Z,988.4
2023-01-15T03:11:57.000Z,988.3
2023-01-15T03:13:08.000Z,988.4
2023-01-15T03:14:20.000Z,988.4
2023-01-15T03:15:32.000Z,988.4
2023-01-15T03:16:45.000Z,988.4
2023-01-15T03:17:57.000Z,988.5
2023-01-15T03:19:09.000Z,988.5
2023-01-15T03:20:21.000Z,988.5
2023-01-15T03:21:33.000Z,988.6
2023-01-15T03:22:46.000Z,988.6
2023-01-15T03:23:58.000Z,988.6
2023-01-15T03:25:10.000Z,988.6
2023-01-15T03:26:22.000Z,988.6
2023-01-15T03:27:34.000Z,988.6
2023-01-15T03:28:45.000Z,988.6
2023-01-15T03:29:58.000Z,988.7
2023-01-15T03:31:10.000Z,988.7
2023-01-15T03:32:22.000Z,988.7
2023-01-15T03:33:34.000Z,988.7
2023-01-15T03:34:46.000Z,988.7
2023-01-15T03:35:59.000Z,988.7
2023-01-15T03:37:11.000Z,988.7
2023-01-15T03:38:23.000Z,988.6
2023-01-15T03:39:35.000Z,988.7
2023-01-15T03:40:47.000Z,988.7
2023-01-15T03:42:00.000Z,988.8
2023-01-15T03:43:12.000Z,988.7
2023-01-15T03:44:23.000Z,988.7
2023-01-15T03:45:35.000Z,988.7
2023-01-15T03:46:47.000Z,988.7
2023-01-15T03:47:59.000Z,988.7
2023-01-15T03:49:12.000Z,988.7
2023-01-15T03:50:24.000Z,988.8
2023-01-15T03:51:36.000Z,988.8
2023-01-15T03:52:48.000Z,988.7
2023-01-15T03:54:00.000Z,988.8
2023-01-15T03:55:13.000Z,988.8
2023-01-15T03:56:25.000Z,988.8
2023-01-15T03:57:37.000Z,988.9
2023-01-15T03:58:49.000Z,988.8
2023-01-15T04:00:00.000Z,988.9
2023-01-15T04:01:13.000Z,988.9
2023-01-15T04:02:25.000Z,989
2023-01-15T04:03:37.000Z,989
2023-01-15T04:04:49.000Z,989
2023-01-15T04:06:01.000Z,989
2023-01-15T04:07:13.000Z,988.9
2023-01-15T04:08:26.000Z,989
2023-01-15T04:09:38.000Z,989
2023-01-15T04:10:50.000Z,989
2023-01-15T04:12:02.000Z,989.2
2023-01-15T04:13:14.000Z,989.3
2023-01-15T04:14:27.000Z,989.4
2023-01-15T04:15:38.000Z,989.4
2023-01-15T04:16:50.000Z,989.4
2023-01-15T04:18:02.000Z,989.4
2023-01-15T04:19:14.000Z,989.3
2023-01-15T04:20:27.000Z,989.3
2023-01-15T04:21:39.000Z,989.3
2023-01-15T04:22:51.000Z,989.3
2023-01-15T04:24:03.000Z,989.3
2023-01-15T04:25:15.000Z,989.3
2023-01-15T04:26:27.000Z,989.3
2023-01-15T04:27:40.000Z,989.3
2023-01-15T04:28:52.000Z,989.4
2023-01-15T04:30:04.000Z,989.5
2023-01-15T04:31:15.000Z,989.5
2023-01-15T04:32:27.000Z,989.6
2023-01-15T04:33:40.000Z,989.6
2023-01-15T04:34:52.000Z,989.6
2023-01-15T04:36:03.000Z,989.6
2023-01-15T04:37:15.000Z,989.6
2023-01-15T04:38:27.000Z,989.7
2023-01-15T04:39:39.000Z,989.7
2023-01-15T04:40:52.000Z,989.7
2023-01-15T04:42:04.000Z,989.7
2023-01-15T04:43:16.000Z,989.6
2023-01-15T04:44:28.000Z,989.6
2023-01-15T04:45:40.000Z,989.6
2023-01-15T04:46:53.000Z,989.7
2023-01-15T04:48:05.000Z,989.8
2023-01-15T04:49:17.000Z,989.8
2023-01-15T04:50:29.000Z,989.8
2023-01-15T04:51:40.000Z,989.8
2023-01-15T04:52:53.000Z,989.8
2023-01-15T04:54:05.000Z,990
2023-01-15T04:55:17.000Z,990
2023-01-15T04:56:29.000Z,990
2023-01-15T04:57:41.000Z,989.9
2023-01-15T04:58:53.000Z,989.9
2023-01-15T05:00:06.000Z,990
2023-01-15T05:01:18.000Z,990
2023-01-15T05:02:30.000Z,990
2023-01-15T05:03:42.000Z,990
2023-01-15T05:04:54.000Z,990
2023-01-15T05:06:07.000Z,990
2023-01-15T05:07:18.000Z,990
2023-01-15T05:08:30.000Z,990
2023-01-15T05:09:42.000Z,989.9
2023-01-15T05:10:54.000Z,990
2023-01-15T05:12:07.000Z,990
2023-01-15T05:13:19.000Z,990
2023-01-15T05:14:31.000Z,990.1
2023-01-15T05:15:43.000Z,990.1
2023-01-15T05:16:55.000Z,990
2023-01-15T05:18:07.959Z,990.1
2023-01-15T05:19:20.000Z,990.1
2023-01-15T05:20:32.000Z,990.1
2023-01-15T05:21:44.000Z,990.1
2023-01-15T05:22:55.000Z,990.1
2023-01-15T05:24:07.000Z,990.1
2023-01-15T05:25:20.000Z,990.1
2023-01-15T05:26:32.000Z,990.1
2023-01-15T05:27:44.000Z,990.1
2023-01-15T05:28:56.000Z,990.1
2023-01-15T05:30:08.000Z,990.1
2023-01-15T05:31:21.000Z,990.1
2023-01-15T05:32:33.000Z,990.2
2023-01-15T05:33:45.000Z,990.1
2023-01-15T05:34:57.000Z,990.2
2023-01-15T05:37:21.000Z,990.4
2023-01-15T05:38:33.000Z,990.4
2023-01-15T05:39:45.000Z,990.5
2023-01-15T05:40:57.000Z,990.6
2023-01-15T05:42:09.000Z,990.6
2023-01-15T05:43:21.000Z,990.6
2023-01-15T05:43:40.224Z,990.4
2023-01-15T05:44:34.000Z,990.6
2023-01-15T05:45:46.000Z,990.6
2023-01-15T05:46:58.000Z,990.6
2023-01-15T05:48:10.000Z,990.6
2023-01-15T05:49:22.000Z,990.6
2023-01-15T05:50:34.000Z,990.6
2023-01-15T05:51:47.000Z,990.6
2023-01-15T05:52:59.000Z,990.6
2023-01-15T05:54:10.000Z,990.6
2023-01-15T05:55:22.000Z,990.6
2023-01-15T05:56:34.000Z,990.5
2023-01-15T05:57:47.000Z,990.5
2023-01-15T05:58:59.000Z,990.6
2023-01-15T06:00:11.000Z,990.6
2023-01-15T06:01:23.000Z,990.7
2023-01-15T06:02:35.000Z,990.7
2023-01-15T06:03:48.000Z,990.6
2023-01-15T06:05:00.000Z,990.7
2023-01-15T06:06:12.000Z,990.6
2023-01-15T06:07:24.000Z,990.6
2023-01-15T06:08:36.000Z,990.6
2023-01-15T06:09:47.000Z,990.7
2023-01-15T06:11:00.000Z,990.7
2023-01-15T06:12:12.000Z,990.7
2023-01-15T06:14:36.000Z,990.7
2023-01-15T06:15:48.000Z,990.7
2023-01-15T06:17:01.000Z,990.8
2023-01-15T06:18:13.000Z,990.8
2023-01-15T06:19:25.000Z,990.8
2023-01-15T06:20:37.000Z,990.7
2023-01-15T06:20:55.054Z,990.7
2023-01-15T06:21:49.000Z,990.7
2023-01-15T06:23:02.000Z,990.6
2023-01-15T06:24:14.000Z,990.6
2023-01-15T06:25:25.000Z,990.6
2023-01-15T06:27:49.000Z,990.7
2023-01-15T06:29:01.000Z,990.7
2023-01-15T06:30:14.000Z,990.7
2023-01-15T06:31:26.000Z,990.6
2023-01-15T06:32:38.000Z,990.6
2023-01-15T06:33:50.000Z,990.6
2023-01-15T06:34:08.098Z,990.7
2023-01-15T06:35:02.000Z,990.7
2023-01-15T06:36:15.000Z,990.7
2023-01-15T06:37:27.000Z,990.7
2023-01-15T06:38:39.000Z,990.8
2023-01-15T06:41:02.000Z,990.9
2023-01-15T06:42:15.000Z,991
2023-01-15T06:43:27.000Z,991
2023-01-15T06:44:39.000Z,991.1
2023-01-15T06:45:51.000Z,991
2023-01-15T06:47:03.000Z,991
2023-01-15T06:47:22.154Z,990.8
2023-01-15T06:48:15.000Z,991
2023-01-15T06:49:28.000Z,991
2023-01-15T06:50:40.000Z,991
2023-01-15T06:51:52.000Z,990.9
2023-01-15T06:53:04.000Z,991
2023-01-15T06:54:16.000Z,991
2023-01-15T06:55:29.000Z,991
2023-01-15T06:56:40.000Z,991
2023-01-15T06:57:52.000Z,991.1
2023-01-15T06:59:04.000Z,991.2
2023-01-15T07:00:16.000Z,991.2
2023-01-15T07:01:29.000Z,991.1
2023-01-15T07:02:41.000Z,991.1
2023-01-15T07:03:53.000Z,991.1
2023-01-15T07:05:05.000Z,991.1
2023-01-15T07:06:17.000Z,991.1
2023-01-15T07:07:29.000Z,991.3
2023-01-15T07:08:42.000Z,991.4
2023-01-15T07:09:54.000Z,991.4
2023-01-15T07:11:06.000Z,991.3
2023-01-15T07:12:17.000Z,991.3
2023-01-15T07:14:42.000Z,991.4
2023-01-15T07:15:54.000Z,991.4
2023-01-15T07:17:06.000Z,991.3
2023-01-15T07:18:18.000Z,991.3
2023-01-15T07:19:30.000Z,991.4
2023-01-15T07:20:43.000Z,991.3
2023-01-15T07:21:00.423Z,991.3
2023-01-15T07:21:55.000Z,991.3
2023-01-15T07:23:07.000Z,991.2
2023-01-15T07:24:19.000Z,991.1
2023-01-15T07:25:31.000Z,991.2
2023-01-15T07:26:43.000Z,991.2
2023-01-15T07:27:55.000Z,991.2
2023-01-15T07:29:07.000Z,991.2
2023-01-15T07:30:19.000Z,991.2
2023-01-15T07:31:31.000Z,991.2
2023-01-15T07:32:43.000Z,991.2
2023-01-15T07:33:56.000Z,991.2
2023-01-15T07:35:08.000Z,991.2
2023-01-15T07:36:20.000Z,991.2
2023-01-15T07:37:32.000Z,991.2
2023-01-15T07:38:44.000Z,991.2
2023-01-15T07:39:56.000Z,991.2
2023-01-15T07:41:09.000Z,991.3
2023-01-15T07:42:21.000Z,991.3
2023-01-15T07:43:32.000Z,991.3
2023-01-15T07:44:44.000Z,991.3
2023-01-15T07:45:56.000Z,991.3
2023-01-15T07:47:09.000Z,991.4
2023-01-15T07:48:21.000Z,991.3
2023-01-15T07:49:33.000Z,991.3
2023-01-15T07:50:45.000Z,991.3
2023-01-15T07:51:57.000Z,991.2
2023-01-15T07:53:10.000Z,991.2
2023-01-15T07:54:22.000Z,991.2
2023-01-15T07:55:34.000Z,991.3
2023-01-15T07:56:46.000Z,991.3
2023-01-15T07:57:58.000Z,991.4
2023-01-15T07:59:09.000Z,991.4
2023-01-15T08:00:22.000Z,991.4
2023-01-15T08:01:34.000Z,991.4
2023-01-15T08:02:46.000Z,991.5
2023-01-15T08:03:58.000Z,991.4
2023-01-15T08:05:10.000Z,991.5
2023-01-15T08:06:23.000Z,991.5
2023-01-15T08:07:35.000Z,991.5
2023-01-15T08:08:47.000Z,991.5
2023-01-15T08:09:59.000Z,991.6
2023-01-15T08:11:11.000Z,991.5
2023-01-15T08:12:24.000Z,991.6
2023-01-15T08:13:36.000Z,991.6
2023-01-15T08:14:47.000Z,991.7
2023-01-15T08:15:59.000Z,991.7
2023-01-15T08:17:11.000Z,991.7
2023-01-15T08:18:23.000Z,991.7
2023-01-15T08:19:36.000Z,991.7
2023-01-15T08:20:48.000Z,991.6
2023-01-15T08:22:00.000Z,991.7
2023-01-15T08:23:12.000Z,991.8
2023-01-15T08:25:37.000Z,991.9
2023-01-15T08:26:49.000Z,991.9
2023-01-15T08:28:01.000Z,991.9
2023-01-15T08:29:13.000Z,991.9
2023-01-15T08:30:24.000Z,991.8
2023-01-15T08:31:37.000Z,991.8
2023-01-15T08:31:55.474Z,991.8
2023-01-15T08:32:49.000Z,991.9
2023-01-15T08:34:01.000Z,991.8
2023-01-15T08:35:13.000Z,991.8
2023-01-15T08:36:25.000Z,991.8
2023-01-15T08:37:36.000Z,991.9
2023-01-15T08:38:49.000Z,991.8
2023-01-15T08:40:01.000Z,991.8
2023-01-15T08:41:13.000Z,991.8
2023-01-15T08:42:25.000Z,991.8
2023-01-15T08:43:37.000Z,991.8
2023-01-15T08:44:50.000Z,991.7
2023-01-15T08:46:02.000Z,991.7
2023-01-15T08:47:14.000Z,991.7
2023-01-15T08:48:26.000Z,991.7
2023-01-15T08:49:38.000Z,991.6
2023-01-15T08:50:51.000Z,991.8
2023-01-15T08:52:03.000Z,991.8
2023-01-15T08:53:15.000Z,991.9
2023-01-15T08:54:26.000Z,992
2023-01-15T08:55:38.000Z,992
2023-01-15T08:56:50.000Z,992.1
2023-01-15T08:58:03.000Z,992.1
2023-01-15T08:59:15.000Z,992.1
2023-01-15T09:00:27.000Z,992.1
2023-01-15T09:01:39.000Z,992
2023-01-15T09:02:51.000Z,992
2023-01-15T09:05:16.000Z,992.1
2023-01-15T09:06:28.000Z,992
2023-01-15T09:07:40.000Z,992
2023-01-15T09:08:52.000Z,992.1
2023-01-15T09:10:04.000Z,992.1
2023-01-15T09:11:16.000Z,992.1
2023-01-15T09:11:34.666Z,992
2023-01-15T09:12:28.000Z,992.2
2023-01-15T09:13:40.000Z,992.2
2023-01-15T09:14:52.000Z,992.2
2023-01-15T09:16:04.000Z,992.2
2023-01-15T09:17:17.000Z,992.2
2023-01-15T09:19:41.000Z,992.1
2023-01-15T09:20:53.000Z,992.3
2023-01-15T09:22:05.000Z,992.2
2023-01-15T09:23:18.000Z,992.3
2023-01-15T09:24:30.000Z,992.3
2023-01-15T09:25:41.000Z,992.4
2023-01-15T09:25:59.912Z,992.2
2023-01-15T09:26:53.000Z,992.4
2023-01-15T09:28:05.000Z,992.4
2023-01-15T09:29:18.000Z,992.4
2023-01-15T09:30:30.000Z,992.4
2023-01-15T09:31:42.000Z,992.5
2023-01-15T09:32:54.000Z,992.4
2023-01-15T09:34:06.000Z,992.5
2023-01-15T09:35:18.000Z,992.5
2023-01-15T09:36:31.000Z,992.4
2023-01-15T09:37:43.000Z,992.4
2023-01-15T09:38:55.000Z,992.4
2023-01-15T09:40:07.000Z,992.3
2023-01-15T09:41:18.000Z,992.3
2023-01-15T09:42:31.000Z,992.3
2023-01-15T09:43:43.000Z,992.3
2023-01-15T09:44:55.000Z,992.3
2023-01-15T09:46:07.000Z,992.2
2023-01-15T09:47:19.000Z,992.2
2023-01-15T09:48:31.000Z,992.1
2023-01-15T09:49:44.000Z,992.2
2023-01-15T09:50:56.000Z,992.1
2023-01-15T09:52:08.000Z,992.1
2023-01-15T09:53:20.000Z,992.2
2023-01-15T09:54:32.000Z,992.2
2023-01-15T09:55:45.000Z,992.2
2023-01-15T09:56:56.000Z,992.2
2023-01-15T09:58:08.000Z,992.2
2023-01-15T09:59:20.000Z,992.2
2023-01-15T10:00:32.000Z,992.2
2023-01-15T10:01:45.000Z,992.1
2023-01-15T10:02:57.000Z,992.2
2023-01-15T10:05:21.000Z,992.3
2023-01-15T10:06:33.000Z,992.3
2023-01-15T10:07:45.000Z,992.3
2023-01-15T10:08:58.000Z,992.3
2023-01-15T10:10:10.000Z,992.4
2023-01-15T10:11:22.000Z,992.4
2023-01-15T10:11:40.045Z,992.2
2023-01-15T10:12:33.000Z,992.4
2023-01-15T10:13:45.000Z,992.4
2023-01-15T10:14:58.000Z,992.4
2023-01-15T10:16:10.000Z,992.5
2023-01-15T10:17:22.000Z,992.5
2023-01-15T10:18:34.000Z,992.5
2023-01-15T10:19:46.000Z,992.6
2023-01-15T10:22:11.000Z,992.5
2023-01-15T10:23:23.000Z,992.4
2023-01-15T10:24:35.000Z,992.4
2023-01-15T10:25:47.000Z,992.4
2023-01-15T10:26:59.000Z,992.4
2023-01-15T10:28:11.000Z,992.4
2023-01-15T10:28:29.000Z,992.5
2023-01-15T10:29:23.000Z,992.4
2023-01-15T10:30:35.000Z,992.5
2023-01-15T10:31:47.000Z,992.5
2023-01-15T10:32:59.000Z,992.4
2023-01-15T10:34:12.000Z,992.5
2023-01-15T10:35:24.000Z,992.4
2023-01-15T10:36:36.000Z,992.4
2023-01-15T10:37:48.000Z,992.4
2023-01-15T10:39:00.000Z,992.5
2023-01-15T10:40:13.000Z,992.6
2023-01-15T10:41:25.000Z,992.5
2023-01-15T10:42:37.000Z,992.5
2023-01-15T10:43:48.000Z,992.4
2023-01-15T10:45:00.000Z,992.5
2023-01-15T10:46:12.000Z,992.6
2023-01-15T10:47:25.000Z,992.4
2023-01-15T10:48:37.000Z,992.4
2023-01-15T10:49:49.000Z,992.4
2023-01-15T10:51:01.000Z,992.4
2023-01-15T10:53:26.000Z,992.3
2023-01-15T10:54:38.000Z,992.4
2023-01-15T10:55:50.000Z,992.4
2023-01-15T10:57:02.000Z,992.4
2023-01-15T10:58:14.000Z,992.5
2023-01-15T10:59:26.000Z,992.4
2023-01-15T10:59:44.541Z,992.4
2023-01-15T11:00:38.000Z,992.4
2023-01-15T11:01:50.000Z,992.4
2023-01-15T11:03:02.000Z,992.5
2023-01-15T11:04:14.000Z,992.3
2023-01-15T11:05:26.000Z,992.4
2023-01-15T11:06:39.000Z,992.4
2023-01-15T11:07:51.000Z,992.3
2023-01-15T11:09:03.000Z,992.3
2023-01-15T11:11:27.000Z,992.2
2023-01-15T11:12:40.000Z,992.3
2023-01-15T11:13:52.000Z,992.3
2023-01-15T11:15:03.000Z,992.3
2023-01-15T11:17:27.000Z,992.3
2023-01-15T11:17:46.357Z,992.2
2023-01-15T11:18:39.000Z,992.3
2023-01-15T11:19:52.000Z,992.2
2023-01-15T11:21:04.000Z,992.2
2023-01-15T11:22:16.000Z,992.1
2023-01-15T11:23:28.000Z,992
2023-01-15T11:23:46.297Z,992.3
2023-01-15T11:24:40.000Z,992.1
2023-01-15T11:25:53.000Z,992.1
2023-01-15T11:28:17.000Z,992
2023-01-15T11:29:29.000Z,992.1
2023-01-15T11:30:40.000Z,992.1
2023-01-15T11:31:53.000Z,992.1
2023-01-15T11:33:05.000Z,992.1
2023-01-15T11:34:17.000Z,992
2023-01-15T11:34:35.988Z,992.1
2023-01-15T11:35:29.000Z,991.9
2023-01-15T11:36:41.000Z,992.1
2023-01-15T11:37:53.000Z,992
2023-01-15T11:39:06.000Z,992
2023-01-15T11:40:18.000Z,992.1
2023-01-15T11:41:30.000Z,992.1
2023-01-15T11:42:42.000Z,992.1
2023-01-15T11:43:54.000Z,992.1
2023-01-15T11:45:07.000Z,991.9
2023-01-15T11:46:18.000Z,992
2023-01-15T11:47:30.000Z,992
2023-01-15T11:48:42.000Z,992
2023-01-15T11:49:54.000Z,992
2023-01-15T11:51:07.000Z,992
2023-01-15T11:52:19.000Z,992.1
2023-01-15T11:53:31.000Z,992.2
2023-01-15T11:54:43.000Z,992.1
2023-01-15T11:55:55.000Z,992.1
2023-01-15T11:57:07.000Z,992.2
2023-01-15T11:58:20.000Z,992.3
2023-01-15T11:59:32.000Z,992.3
2023-01-15T12:00:44.000Z,992.3
2023-01-15T12:01:55.000Z,992.3
2023-01-15T12:04:20.000Z,992.4
2023-01-15T12:05:32.000Z,992.3
2023-01-15T12:06:44.000Z,992.2
2023-01-15T12:07:56.000Z,992.3
2023-01-15T12:09:08.000Z,992.2
2023-01-15T12:10:21.000Z,992.3
2023-01-15T12:10:38.609Z,992.3
2023-01-15T12:12:45.000Z,992.2
2023-01-15T12:13:57.000Z,992.2
2023-01-15T12:15:09.000Z,992.2
2023-01-15T12:16:21.000Z,992.2
2023-01-15T12:17:33.000Z,992.2
2023-01-15T12:18:45.000Z,992.2
2023-01-15T12:19:03.000Z,992.3
2023-01-15T12:19:57.000Z,992.3
2023-01-15T12:22:21.000Z,992.3
2023-01-15T12:23:34.000Z,992.2
2023-01-15T12:24:46.000Z,992.2
2023-01-15T12:25:58.000Z,992.2
2023-01-15T12:27:10.000Z,992.2
2023-01-15T12:28:22.000Z,992.4
2023-01-15T12:28:40.000Z,992.4
2023-01-15T12:29:34.000Z,992.3
2023-01-15T12:30:47.000Z,992.2
2023-01-15T12:31:59.000Z,992.2
2023-01-15T12:33:10.000Z,992.3
2023-01-15T12:34:22.000Z,992.2
2023-01-15T12:35:34.000Z,992.2
2023-01-15T12:36:47.000Z,992.1
2023-01-15T12:37:59.000Z,992.2
2023-01-15T12:39:10.000Z,992.2
2023-01-15T12:40:22.000Z,992.2
2023-01-15T12:41:34.000Z,992.3
2023-01-15T12:42:47.000Z,992.3
2023-01-15T12:43:59.000Z,992.4
2023-01-15T12:45:11.000Z,992.3
2023-01-15T12:46:23.000Z,992.3
2023-01-15T12:47:35.000Z,992.3
2023-01-15T12:48:47.000Z,992.2
2023-01-15T12:50:00.000Z,992.3
2023-01-15T12:51:12.000Z,992.3
2023-01-15T12:52:24.000Z,992.4
2023-01-15T12:53:36.000Z,992.4
2023-01-15T12:54:47.000Z,992.3
2023-01-15T12:56:00.000Z,992.2
2023-01-15T12:58:24.000Z,992.2
2023-01-15T12:59:36.000Z,992.2
2023-01-15T13:00:48.000Z,992.1
2023-01-15T13:02:01.000Z,992.2
2023-01-15T13:03:13.000Z,992.1
2023-01-15T13:05:37.000Z,992.2
2023-01-15T13:06:49.000Z,992.1
2023-01-15T13:08:01.000Z,992.2
2023-01-15T13:09:14.000Z,992.3
2023-01-15T13:10:25.000Z,992.2
2023-01-15T13:11:37.000Z,992.3
2023-01-15T13:11:56.134Z,992.2
2023-01-15T13:12:49.000Z,992.4
2023-01-15T13:14:01.000Z,992.4
2023-01-15T13:15:14.000Z,992.4
2023-01-15T13:16:26.000Z,992.4
2023-01-15T13:17:38.000Z,992.2
2023-01-15T13:18:50.000Z,992.3
2023-01-15T13:20:02.000Z,992.4
2023-01-15T13:21:14.000Z,992.4
2023-01-15T13:22:27.000Z,992.5
2023-01-15T13:23:39.000Z,992.5
2023-01-15T13:24:51.000Z,992.5
2023-01-15T13:26:02.000Z,992.5
2023-01-15T13:27:14.000Z,992.5
2023-01-15T13:28:27.000Z,992.5
2023-01-15T13:29:39.000Z,992.4
2023-01-15T13:30:51.000Z,992.5
2023-01-15T13:32:03.000Z,992.5
2023-01-15T13:33:15.000Z,992.6
2023-01-15T13:34:28.000Z,992.7
2023-01-15T13:35:40.000Z,992.7
2023-01-15T13:36:52.000Z,992.7
2023-01-15T13:38:04.000Z,992.7
2023-01-15T13:39:16.000Z,992.7
2023-01-15T13:40:28.000Z,992.7
2023-01-15T13:41:41.000Z,992.7
2023-01-15T13:42:52.000Z,992.7
2023-01-15T13:44:04.000Z,992.7
2023-01-15T13:45:16.000Z,992.7
2023-01-15T13:46:28.000Z,992.7
2023-01-15T13:47:41.000Z,992.7
2023-01-15T13:48:53.000Z,992.7
2023-01-15T13:50:05.000Z,992.7
2023-01-15T13:51:17.000Z,992.8
2023-01-15T13:52:29.000Z,992.8
2023-01-15T13:53:41.000Z,992.8
2023-01-15T13:54:54.000Z,992.8
2023-01-15T13:56:06.000Z,992.8
2023-01-15T13:57:18.000Z,992.8
2023-01-15T13:58:29.000Z,992.8
2023-01-15T13:59:41.000Z,992.7
2023-01-15T14:00:54.000Z,992.7
2023-01-15T14:02:06.000Z,992.7
2023-01-15T14:03:18.000Z,992.7
2023-01-15T14:04:30.000Z,992.7
2023-01-15T14:05:42.000Z,992.7
2023-01-15T14:06:55.000Z,992.7
2023-01-15T14:08:07.000Z,992.9
2023-01-15T14:09:19.000Z,992.8
2023-01-15T14:10:31.000Z,992.9
2023-01-15T14:11:43.000Z,992.8
2023-01-15T14:12:55.000Z,992.8
2023-01-15T14:14:07.000Z,992.9
2023-01-15T14:15:19.000Z,992.9
2023-01-15T14:16:31.000Z,992.8
2023-01-15T14:17:43.000Z,992.9
2023-01-15T14:18:55.000Z,992.9
2023-01-15T14:20:08.000Z,993
2023-01-15T14:21:20.000Z,993
2023-01-15T14:22:32.000Z,993
2023-01-15T14:23:44.000Z,993
2023-01-15T14:24:56.000Z,992.9
2023-01-15T14:26:08.000Z,992.9
2023-01-15T14:27:21.000Z,993
2023-01-15T14:28:33.000Z,993
2023-01-15T14:29:44.000Z,993
2023-01-15T14:30:56.000Z,993
2023-01-15T14:32:08.000Z,993.1
2023-01-15T14:33:21.000Z,993.1
2023-01-15T14:34:33.000Z,993.1
2023-01-15T14:35:45.000Z,993.1
2023-01-15T14:36:57.000Z,993
2023-01-15T14:38:09.000Z,993.1
2023-01-15T14:39:22.000Z,993.2
2023-01-15T14:41:46.000Z,993.1
2023-01-15T14:42:58.000Z,993.1
2023-01-15T14:44:10.000Z,993.1
2023-01-15T14:45:21.000Z,993.2
2023-01-15T14:46:34.000Z,993.2
2023-01-15T14:47:46.000Z,993
2023-01-15T14:48:05.031Z,993.1
2023-01-15T14:48:58.000Z,993.2
2023-01-15T14:50:10.000Z,993
2023-01-15T14:51:22.000Z,993.1
2023-01-15T14:52:35.000Z,993.1
2023-01-15T14:53:47.000Z,993.1
2023-01-15T14:54:59.000Z,993.1
2023-01-15T14:56:11.000Z,993.1
2023-01-15T14:57:23.000Z,993.1
2023-01-15T14:58:36.000Z,993
2023-01-15T14:59:48.000Z,993.1
2023-01-15T15:00:59.000Z,993.2
2023-01-15T15:02:11.000Z,993.1
2023-01-15T15:03:23.000Z,993.2
2023-01-15T15:04:35.000Z,993.1
2023-01-15T15:05:48.000Z,993.1
2023-01-15T15:07:00.000Z,993
2023-01-15T15:08:12.000Z,992.8
2023-01-15T15:09:24.000Z,993.1
2023-01-15T15:10:36.000Z,993.1
2023-01-15T15:11:49.000Z,993.1
2023-01-15T15:13:01.000Z,993
2023-01-15T15:14:13.000Z,993
2023-01-15T15:15:25.000Z,993
2023-01-15T15:16:36.000Z,993
2023-01-15T15:17:48.000Z,993
2023-01-15T15:19:01.000Z,993
2023-01-15T15:20:13.000Z,993
2023-01-15T15:21:25.000Z,993
2023-01-15T15:22:37.000Z,992.9
2023-01-15T15:23:49.000Z,992.9
2023-01-15T15:25:02.000Z,992.9
2023-01-15T15:26:14.000Z,993
2023-01-15T15:27:26.000Z,992.9
2023-01-15T15:28:38.000Z,992.8
2023-01-15T15:29:50.000Z,992.9
2023-01-15T15:31:03.000Z,992.7
2023-01-15T15:32:14.000Z,992.8
2023-01-15T15:33:26.000Z,992.8
2023-01-15T15:34:38.000Z,992.9
2023-01-15T15:35:50.000Z,992.8
2023-01-15T15:37:02.000Z,992.8
2023-01-15T15:38:15.000Z,992.8